createdAt,value
2019-02-11T00:00:29.900Z,15.27
2019-02-11T00:03:33.712Z,11.10
2019-02-11T00:06:37.553Z,8.00
2019-02-11T00:09:41.361Z,8.77
2019-02-11T00:12:45.199Z,7.77
2019-02-11T00:15:49.030Z,11.43
2019-02-11T00:18:53.012Z,8.10
2019-02-11T00:21:56.825Z,10.90
2019-02-11T00:25:00.644Z,11.50
2019-02-11T00:28:04.436Z,9.73
2019-02-11T00:31:08.255Z,8.03
2019-02-11T00:34:12.090Z,12.47
2019-02-11T00:37:15.898Z,12.27
2019-02-11T00:40:19.682Z,11.77
2019-02-11T00:43:23.542Z,11.63
2019-02-11T00:46:27.344Z,20.53
2019-02-11T00:49:31.151Z,14.57
2019-02-11T00:52:34.988Z,14.50
2019-02-11T00:55:38.822Z,12.33
2019-02-11T00:58:42.649Z,19.27
2019-02-11T01:01:46.554Z,21.37
2019-02-11T01:04:50.437Z,20.40
2019-02-11T01:07:54.252Z,22.57
2019-02-11T01:10:58.074Z,13.50
2019-02-11T01:14:01.962Z,29.17
2019-02-11T01:17:05.794Z,24.73
2019-02-11T01:20:11.643Z,16.17
2019-02-11T01:23:15.457Z,18.93
2019-02-11T01:26:19.364Z,18.57
2019-02-11T01:29:23.148Z,21.10
2019-02-11T01:32:26.960Z,20.70
2019-02-11T01:35:30.866Z,15.53
2019-02-11T01:38:34.656Z,22.50
2019-02-11T01:41:38.498Z,21.90
2019-02-11T01:44:42.298Z,15.20
2019-02-11T01:47:46.125Z,12.17
2019-02-11T01:50:49.955Z,11.63
2019-02-11T01:53:53.747Z,18.03
2019-02-11T01:56:57.535Z,14.20
2019-02-11T02:00:01.422Z,18.37
2019-02-11T02:03:05.346Z,15.70
2019-02-11T02:06:09.157Z,12.23
2019-02-11T02:09:13.031Z,18.70
2019-02-11T02:12:16.895Z,19.23
2019-02-11T02:15:20.761Z,13.63
2019-02-11T02:18:24.560Z,15.57
2019-02-11T02:21:28.368Z,14.87
2019-02-11T02:24:35.200Z,14.73
2019-02-11T02:27:39.070Z,12.37
2019-02-11T02:30:42.883Z,20.70
2019-02-11T02:33:46.672Z,21.97
2019-02-11T02:36:50.477Z,13.47
2019-02-11T02:39:54.363Z,19.90
2019-02-11T02:42:58.198Z,20.97
2019-02-11T02:46:02.018Z,16.00
2019-02-11T02:49:05.918Z,15.67
2019-02-11T02:52:09.745Z,18.00
2019-02-11T02:55:13.639Z,13.07
2019-02-11T02:58:17.440Z,13.50
2019-02-11T03:01:21.239Z,19.60
2019-02-11T03:04:25.093Z,19.07
2019-02-11T03:07:28.919Z,20.13
2019-02-11T03:10:33.746Z,19.53
2019-02-11T03:13:37.544Z,13.97
2019-02-11T03:16:41.342Z,13.47
2019-02-11T03:19:45.163Z,16.60
2019-02-11T03:22:48.956Z,16.60
2019-02-11T03:25:52.856Z,15.90
2019-02-11T03:28:56.639Z,13.83
2019-02-11T03:32:00.500Z,26.17
2019-02-11T03:35:04.522Z,16.17
2019-02-11T03:38:08.337Z,18.83
2019-02-11T03:41:12.152Z,12.10
2019-02-11T03:44:15.972Z,19.63
2019-02-11T03:47:19.779Z,21.83
2019-02-11T03:50:23.663Z,21.40
2019-02-11T03:53:27.539Z,14.47
2019-02-11T03:56:31.502Z,34.33
2019-02-11T03:59:35.279Z,23.10
2019-02-11T04:02:39.144Z,16.50
2019-02-11T04:05:42.922Z,18.50
2019-02-11T04:08:46.757Z,17.83
2019-02-11T04:11:50.564Z,16.20
2019-02-11T04:14:54.391Z,21.07
2019-02-11T04:17:58.227Z,13.33
2019-02-11T04:21:02.019Z,19.77
2019-02-11T04:24:05.911Z,21.93
2019-02-11T04:27:09.707Z,26.63
2019-02-11T04:30:13.788Z,24.93
2019-02-11T04:33:17.593Z,19.17
2019-02-11T04:36:21.400Z,22.10
2019-02-11T04:39:25.214Z,17.90
2019-02-11T04:42:29.102Z,20.30
2019-02-11T04:45:32.912Z,18.87
2019-02-11T04:48:36.789Z,19.13
2019-02-11T04:51:40.591Z,20.77
2019-02-11T04:54:44.395Z,19.90
2019-02-11T04:57:48.228Z,27.40
2019-02-11T05:00:52.022Z,22.53
2019-02-11T05:03:55.853Z,17.30
2019-02-11T05:06:59.658Z,22.67
2019-02-11T05:10:03.652Z,18.47
2019-02-11T05:13:07.435Z,18.87
2019-02-11T05:16:11.256Z,21.53
2019-02-11T05:19:15.076Z,27.33
2019-02-11T05:22:18.879Z,32.73
2019-02-11T05:25:22.703Z,29.57
2019-02-11T05:28:26.503Z,21.83
2019-02-11T05:31:32.617Z,21.60
2019-02-11T05:34:35.834Z,25.43
2019-02-11T05:37:39.710Z,17.60
2019-02-11T05:40:43.516Z,33.03
2019-02-11T05:43:47.335Z,31.90
2019-02-11T05:46:51.194Z,23.10
2019-02-11T05:49:55.008Z,20.20
2019-02-11T05:52:58.846Z,36.07
2019-02-11T05:56:02.655Z,25.87
2019-02-11T05:59:06.509Z,26.87
2019-02-11T06:02:10.464Z,26.77
2019-02-11T06:05:14.358Z,24.73
2019-02-11T06:08:18.183Z,27.33
2019-02-11T06:11:21.984Z,26.03
2019-02-11T06:14:25.788Z,25.00
2019-02-11T06:17:29.588Z,21.80
2019-02-11T06:20:33.459Z,30.20
2019-02-11T06:23:37.281Z,20.57
2019-02-11T06:26:41.149Z,21.87
2019-02-11T06:29:44.957Z,27.20
2019-02-11T06:32:48.758Z,20.07
2019-02-11T06:35:52.565Z,22.23
2019-02-11T06:38:56.566Z,24.40
2019-02-11T06:42:00.376Z,24.90
2019-02-11T06:45:12.528Z,21.80
2019-02-11T06:48:10.118Z,23.70
2019-02-11T06:51:13.987Z,22.83
2019-02-11T06:54:17.766Z,22.80
2019-02-11T06:57:21.579Z,25.67
2019-02-11T07:00:25.527Z,20.10
2019-02-11T07:03:29.366Z,25.00
2019-02-11T07:06:33.171Z,24.73
2019-02-11T07:09:37.010Z,27.97
2019-02-11T07:12:40.973Z,21.73
2019-02-11T07:15:44.799Z,27.37
2019-02-11T07:18:48.616Z,31.57
2019-02-11T07:21:52.408Z,21.30
2019-02-11T07:24:56.214Z,17.73
2019-02-11T07:28:00.090Z,18.17
2019-02-11T07:31:03.976Z,25.60
2019-02-11T07:34:07.786Z,23.60
2019-02-11T07:37:11.595Z,22.50
2019-02-11T07:40:15.489Z,27.63
2019-02-11T07:43:25.629Z,33.20
2019-02-11T07:46:33.645Z,22.53
2019-02-11T07:49:37.580Z,21.23
2019-02-11T07:52:41.446Z,30.37
2019-02-11T07:55:45.225Z,24.17
2019-02-11T07:58:49.065Z,26.73
2019-02-11T08:01:52.854Z,21.93
2019-02-11T08:04:56.697Z,21.60
2019-02-11T08:08:00.506Z,28.37
2019-02-11T08:11:05.001Z,26.90
2019-02-11T08:14:08.866Z,32.90
2019-02-11T08:17:12.687Z,25.80
2019-02-11T08:20:16.484Z,32.93
2019-02-11T08:23:20.287Z,23.17
2019-02-11T08:26:24.089Z,16.80
2019-02-11T08:29:27.883Z,18.13
2019-02-11T08:32:31.707Z,21.50
2019-02-11T08:35:35.524Z,30.80
2019-02-11T08:38:39.360Z,23.67
2019-02-11T08:41:43.231Z,23.63
2019-02-11T08:44:47.075Z,18.43
2019-02-11T08:47:50.872Z,23.43
2019-02-11T08:50:54.700Z,16.97
2019-02-11T08:53:58.542Z,14.23
2019-02-11T08:57:02.333Z,17.23
2019-02-11T09:00:06.382Z,16.13
2019-02-11T09:03:10.199Z,12.53
2019-02-11T09:06:14.095Z,8.53
2019-02-11T09:09:18.089Z,12.87
2019-02-11T09:12:22.049Z,12.83
2019-02-11T09:15:25.844Z,14.03
2019-02-11T09:18:29.819Z,14.20
2019-02-11T09:21:33.686Z,10.53
2019-02-11T09:24:37.641Z,8.83
2019-02-11T09:27:41.425Z,11.63
2019-02-11T09:30:45.406Z,9.50
2019-02-11T09:33:49.271Z,14.33
2019-02-11T09:36:53.089Z,8.63
2019-02-11T09:39:56.996Z,8.30
2019-02-11T09:43:00.791Z,4.87
2019-02-11T09:46:04.695Z,7.90
2019-02-11T09:49:08.664Z,7.37
2019-02-11T09:52:12.495Z,6.37
2019-02-11T09:55:19.240Z,5.20
2019-02-11T09:58:23.077Z,5.93
2019-02-11T10:01:26.878Z,3.50
2019-02-11T10:04:30.758Z,4.33
2019-02-11T10:07:34.675Z,2.00
2019-02-11T10:10:38.501Z,4.97
2019-02-11T10:13:42.284Z,3.20
2019-02-11T10:16:46.161Z,2.10
2019-02-11T10:19:50.039Z,6.37
2019-02-11T10:22:53.950Z,9.73
2019-02-11T10:25:57.835Z,8.93
2019-02-11T10:29:01.735Z,13.93
2019-02-11T10:32:05.690Z,11.00
2019-02-11T10:35:10.398Z,14.97
2019-02-11T10:38:14.279Z,13.93
2019-02-11T10:41:19.141Z,17.70
2019-02-11T10:44:22.942Z,16.67
2019-02-11T10:47:26.863Z,6.43
2019-02-11T10:50:30.754Z,29.27
2019-02-11T10:53:34.717Z,17.10
2019-02-11T10:56:38.549Z,11.90
2019-02-11T10:59:42.387Z,12.00
2019-02-11T11:02:46.277Z,13.50
2019-02-11T11:05:50.195Z,16.70
2019-02-11T11:08:53.993Z,10.73
2019-02-11T11:11:57.822Z,12.80
2019-02-11T11:15:01.631Z,11.33
2019-02-11T11:18:06.811Z,13.40
2019-02-11T11:21:12.919Z,11.33
2019-02-11T11:24:16.717Z,12.93
2019-02-11T11:27:20.589Z,10.70
2019-02-11T11:30:24.480Z,9.10
2019-02-11T11:33:28.266Z,9.07
2019-02-11T11:36:32.200Z,5.17
2019-02-11T11:39:36.168Z,10.03
2019-02-11T11:42:40.002Z,8.53
2019-02-11T11:45:43.819Z,7.50
2019-02-11T11:48:47.697Z,8.23
2019-02-11T11:51:51.594Z,9.73
2019-02-11T11:54:55.460Z,6.80
2019-02-11T11:57:59.428Z,8.53
2019-02-11T12:01:03.712Z,10.20
2019-02-11T12:04:07.605Z,10.33
2019-02-11T12:07:11.587Z,10.27
2019-02-11T12:10:15.425Z,12.23
2019-02-11T12:13:22.952Z,14.67
2019-02-11T12:16:24.783Z,8.97
2019-02-11T12:19:28.585Z,7.77
2019-02-11T12:22:32.416Z,8.83
2019-02-11T12:25:36.276Z,7.37
2019-02-11T12:28:40.153Z,6.10
2019-02-11T12:31:43.950Z,5.60
2019-02-11T12:34:47.753Z,8.17
2019-02-11T12:37:51.564Z,5.10
2019-02-11T12:40:55.408Z,4.47
2019-02-11T12:43:59.202Z,8.13
2019-02-11T12:47:13.874Z,4.43
2019-02-11T12:50:09.861Z,3.67
2019-02-11T12:53:13.714Z,5.77
2019-02-11T12:56:17.534Z,5.80
2019-02-11T12:59:21.408Z,4.47
2019-02-11T13:02:25.227Z,9.73
2019-02-11T13:05:44.367Z,10.07
2019-02-11T13:08:36.157Z,8.07
2019-02-11T13:11:40.105Z,4.87
2019-02-11T13:14:43.906Z,6.20
2019-02-11T13:17:47.888Z,7.03
2019-02-11T13:20:51.680Z,11.47
2019-02-11T13:23:55.531Z,10.10
2019-02-11T13:26:59.330Z,9.17
2019-02-11T13:30:03.212Z,13.67
2019-02-11T13:33:07.032Z,7.80
2019-02-11T13:36:10.839Z,18.63
2019-02-11T13:39:14.689Z,12.63
2019-02-11T13:42:18.565Z,10.20
2019-02-11T13:45:22.622Z,15.17
2019-02-11T13:48:26.655Z,11.03
2019-02-11T13:51:30.546Z,11.43
2019-02-11T13:54:34.508Z,7.73
2019-02-11T13:57:38.947Z,8.13
2019-02-11T14:00:43.641Z,20.83
2019-02-11T14:03:47.535Z,14.57
2019-02-11T14:06:51.488Z,19.37
2019-02-11T14:09:55.439Z,9.47
2019-02-11T14:12:59.476Z,18.33
2019-02-11T14:16:03.350Z,12.50
2019-02-11T14:19:07.265Z,9.83
2019-02-11T14:22:11.298Z,7.17
2019-02-11T14:25:15.357Z,11.40
2019-02-11T14:28:19.335Z,10.17
2019-02-11T14:31:23.225Z,15.57
2019-02-11T14:34:27.037Z,11.47
2019-02-11T14:37:30.933Z,14.80
2019-02-11T14:40:34.749Z,12.53
2019-02-11T14:43:38.528Z,8.23
2019-02-11T14:46:42.441Z,10.83
2019-02-11T14:49:46.276Z,14.43
2019-02-11T14:52:50.073Z,8.97
2019-02-11T14:55:53.860Z,9.47
2019-02-11T14:58:57.651Z,12.33
2019-02-11T15:02:01.477Z,12.53
2019-02-11T15:05:05.644Z,5.33
2019-02-11T15:08:09.424Z,14.37
2019-02-11T15:11:13.215Z,9.23
2019-02-11T15:14:17.029Z,8.47
2019-02-11T15:17:20.891Z,5.70
2019-02-11T15:20:24.667Z,5.80
2019-02-11T15:23:28.472Z,9.20
2019-02-11T15:26:32.384Z,13.93
2019-02-11T15:29:36.183Z,16.07
2019-02-11T15:32:40.032Z,11.50
2019-02-11T15:35:43.837Z,12.63
2019-02-11T15:38:47.662Z,9.83
2019-02-11T15:41:51.467Z,9.77
2019-02-11T15:44:55.294Z,11.23
2019-02-11T15:47:59.195Z,15.07
2019-02-11T15:51:03.046Z,13.50
2019-02-11T15:54:06.846Z,11.83
2019-02-11T15:57:10.683Z,8.17
2019-02-11T16:00:16.504Z,13.07
2019-02-11T16:03:20.393Z,13.53
2019-02-11T16:06:24.187Z,9.40
2019-02-11T16:09:27.975Z,7.50
2019-02-11T16:12:31.855Z,9.07
2019-02-11T16:15:35.669Z,12.80
2019-02-11T16:18:39.493Z,8.30
2019-02-11T16:21:43.298Z,6.60
2019-02-11T16:24:47.947Z,7.17
2019-02-11T16:27:51.772Z,7.80
2019-02-11T16:30:55.580Z,8.60
2019-02-11T16:33:59.398Z,10.77
2019-02-11T16:37:03.276Z,9.60
2019-02-11T16:40:10.011Z,8.10
2019-02-11T16:43:13.799Z,8.87
2019-02-11T16:46:17.666Z,13.10
2019-02-11T16:49:21.499Z,13.53
2019-02-11T16:52:25.303Z,19.17
2019-02-11T16:55:29.178Z,16.03
2019-02-11T16:58:32.987Z,23.13
2019-02-11T17:01:36.864Z,10.70
2019-02-11T17:04:40.674Z,13.73
2019-02-11T17:07:44.604Z,11.23
2019-02-11T17:10:48.467Z,21.53
2019-02-11T17:13:52.260Z,16.60
2019-02-11T17:16:56.037Z,15.33
2019-02-11T17:19:59.847Z,12.40
2019-02-11T17:23:03.708Z,10.93
2019-02-11T17:26:07.525Z,16.43
2019-02-11T17:29:11.311Z,17.70
2019-02-11T17:32:15.163Z,17.60
2019-02-11T17:35:19.041Z,16.67
2019-02-11T17:38:22.884Z,18.43
2019-02-11T17:41:26.684Z,11.80
2019-02-11T17:44:30.587Z,13.63
2019-02-11T17:47:34.476Z,15.23
2019-02-11T17:50:38.381Z,11.50
2019-02-11T17:53:42.166Z,17.67
2019-02-11T17:56:46.171Z,21.97
2019-02-11T17:59:49.972Z,17.03
2019-02-11T18:02:53.871Z,12.77
2019-02-11T18:05:57.788Z,8.67
2019-02-11T18:09:01.584Z,8.90
2019-02-11T18:12:05.658Z,10.57
2019-02-11T18:15:10.187Z,11.43
2019-02-11T18:18:14.015Z,8.90
2019-02-11T18:21:17.825Z,11.17
2019-02-11T18:24:21.622Z,9.37
2019-02-11T18:27:25.524Z,15.50
2019-02-11T18:30:29.328Z,14.57
2019-02-11T18:33:33.121Z,14.37
2019-02-11T18:36:36.927Z,10.13
2019-02-11T18:39:40.759Z,11.20
2019-02-11T18:42:45.526Z,19.73
2019-02-11T18:45:49.391Z,11.03
2019-02-11T18:48:53.225Z,22.60
2019-02-11T18:51:57.203Z,11.80
2019-02-11T18:55:01.049Z,18.73
2019-02-11T18:58:04.842Z,22.00
2019-02-11T19:01:08.631Z,17.20
2019-02-11T19:04:12.594Z,8.47
2019-02-11T19:07:16.424Z,17.50
2019-02-11T19:10:20.373Z,19.20
2019-02-11T19:13:24.177Z,13.90
2019-02-11T19:16:27.969Z,6.37
2019-02-11T19:19:31.772Z,9.70
2019-02-11T19:22:35.643Z,11.00
2019-02-11T19:25:39.444Z,10.73
2019-02-11T19:28:43.407Z,16.67
2019-02-11T19:31:47.229Z,14.90
2019-02-11T19:34:51.035Z,15.07
2019-02-11T19:37:54.829Z,8.97
2019-02-11T19:40:58.642Z,9.53
2019-02-11T19:44:02.573Z,13.07
2019-02-11T19:47:06.424Z,17.27
2019-02-11T19:50:11.930Z,21.60
2019-02-11T19:53:15.722Z,9.77
2019-02-11T19:56:19.515Z,14.87
2019-02-11T19:59:23.369Z,11.13
2019-02-11T20:02:27.156Z,15.57
2019-02-11T20:05:30.983Z,11.63
2019-02-11T20:08:34.987Z,12.70
2019-02-11T20:11:38.776Z,14.13
2019-02-11T20:14:42.620Z,11.17
2019-02-11T20:17:46.619Z,9.63
2019-02-11T20:20:50.424Z,11.63
2019-02-11T20:23:54.256Z,8.83
2019-02-11T20:26:58.050Z,14.00
2019-02-11T20:30:01.924Z,7.13
2019-02-11T20:33:05.716Z,7.43
2019-02-11T20:36:09.540Z,13.87
2019-02-11T20:39:13.353Z,11.33
2019-02-11T20:42:17.337Z,12.00
2019-02-11T20:45:25.637Z,13.00
2019-02-11T20:48:29.432Z,8.53
2019-02-11T20:51:33.277Z,14.93
2019-02-11T20:54:37.085Z,7.83
2019-02-11T20:57:41.067Z,8.70
2019-02-11T21:00:44.855Z,5.87
2019-02-11T21:03:48.674Z,8.40
2019-02-11T21:06:52.486Z,9.23
2019-02-11T21:09:56.281Z,6.30
2019-02-11T21:13:00.159Z,5.30
2019-02-11T21:16:04.043Z,12.73
2019-02-11T21:19:07.858Z,9.93
2019-02-11T21:22:11.715Z,9.77
2019-02-11T21:25:15.666Z,13.33
2019-02-11T21:28:19.507Z,14.70
2019-02-11T21:31:23.330Z,8.13
2019-02-11T21:34:27.203Z,10.60
2019-02-11T21:37:31.015Z,10.43
2019-02-11T21:40:34.828Z,8.43
2019-02-11T21:43:38.656Z,10.17
2019-02-11T21:46:42.434Z,8.50
2019-02-11T21:49:46.333Z,8.90
2019-02-11T21:52:50.134Z,8.40
2019-02-11T21:55:53.933Z,12.53
2019-02-11T21:58:57.866Z,8.23
2019-02-11T22:02:01.692Z,8.57
2019-02-11T22:05:05.728Z,11.53
2019-02-11T22:08:09.645Z,13.00
2019-02-11T22:11:13.461Z,17.57
2019-02-11T22:14:17.264Z,14.20
2019-02-11T22:17:21.056Z,15.07
2019-02-11T22:20:24.950Z,7.80
2019-02-11T22:23:28.763Z,8.63
2019-02-11T22:26:32.561Z,10.73
2019-02-11T22:29:36.437Z,4.87
2019-02-11T22:32:40.301Z,6.70
2019-02-11T22:35:44.129Z,4.87
2019-02-11T22:38:47.931Z,9.77
2019-02-11T22:41:51.759Z,7.43
2019-02-11T22:44:55.546Z,5.13
2019-02-11T22:47:59.331Z,8.47
2019-02-11T22:51:03.220Z,8.57
2019-02-11T22:54:06.973Z,7.50
2019-02-11T22:57:10.806Z,9.00
2019-02-11T23:00:25.804Z,11.47
2019-02-11T23:03:29.667Z,8.90
2019-02-11T23:06:33.464Z,15.63
2019-02-11T23:09:37.278Z,9.37
2019-02-11T23:16:44.932Z,10.83
2019-02-11T23:19:48.879Z,13.60
2019-02-11T23:22:52.722Z,10.43
2019-02-11T23:25:56.576Z,12.97
2019-02-11T23:29:00.485Z,8.07
2019-02-11T23:32:04.468Z,11.57
2019-02-11T23:35:08.416Z,10.47
2019-02-11T23:38:12.295Z,24.00
2019-02-11T23:41:16.199Z,17.63
2019-02-11T23:44:20.050Z,12.40
2019-02-11T23:47:23.883Z,10.23
2019-02-11T23:50:27.756Z,12.23
2019-02-11T23:53:31.588Z,6.20
